Flight Track Log - Related Links

Times and Time Zones

All times are in EDT time to prevent confusion due to time zone crossing. See the PDT4373 flight status page for this flight to view local times or setup timezone preferences in your user account.

Time Position Orientation Groundspeed Altitude Reporting Facility
EDT Latitude Longitude Course Direction KTS MPH feet Rate Location/Type
Mon 12:09:00 PM 41.4604 -75.7371 162° South  Level Estimated
Mon 12:10:00 PM 41.2733 -75.6774 163° South  Level Estimated
Mon 12:11:00 PM 41.0861 -75.6180 190° South  Level Estimated
Mon 12:12:00 PM 40.8990 -75.5589 187° South  Level Estimated
Mon 12:13:00 PM 40.7118 -75.5002 190° South  Level Estimated
Mon 12:14:00 PM 40.5246 -75.4418 143° Southeast  Level Estimated
Mon 12:15:00 PM 40.3373 -75.3837 159° South  Level Estimated
Mon 12:16:00 PM 40.1500 -75.3259 150° Southeast  Level Estimated
Mon 12:17:00 PM 39.9627 -75.2685 150° Southeast  Level Estimated
Mon 12:18:00 PM 39.8667 -75.2333 150° Southeast  Level FlightAware Approximate
Mon 12:19:00 PM 39.8722 -75.2409 150° Southeast  Level Estimated
Mon 12:20:00 PM 39.8722 -75.2409 150° Southeast  Level Estimated
Mon 12:21:00 PM 39.8722 -75.2409 150° Southeast  Level Estimated
Mon 12:22:00 PM 39.8722 -75.2409 150° Southeast  Level Estimated
Mon 12:23:00 PM 39.8722 -75.2409 150° Southeast  Level Estimated
Mon 12:24:00 PM 39.8722 -75.2409 150° Southeast  Level Estimated
Mon 12:25:00 PM 39.8722 -75.2409 150° Southeast  Level Estimated
Mon 12:26:00 PM 39.8722 -75.2409 150° Southeast  Level Estimated
Mon 12:27:00 PM 39.8722 -75.2409 150° Southeast  Level Estimated
Mon 12:28:00 PM 39.8722 -75.2409 150° Southeast  Level Estimated
Mon 12:29:00 PM 39.8722 -75.2409 150° Southeast  Level Estimated
Mon 12:30:00 PM 39.8722 -75.2409 150° Southeast  Level Estimated
Mon 12:31:00 PM 39.8722 -75.2409 150° Southeast  Level Estimated
Mon 12:31:44 PM 40.7000 -75.4500 150° Southeast 225 259 7,900  Level Philadelphia TRACON
Mon 12:32:00 PM 39.8722 -75.2409 150° Southeast  Level Estimated
Mon 12:32:02 PM 40.6833 -75.4667 217° Southwest 240 276 7,700  Level Philadelphia TRACON
Mon 12:33:00 PM 39.8722 -75.2409 150° Southeast  Level Estimated
Mon 12:33:02 PM 40.6167 -75.4833 191° South 239 275 7,000  Level Philadelphia TRACON
Mon 12:33:57 PM 40.5667 -75.4833 180° South 244 281 6,400 -678 Descending Philadelphia TRACON
Mon 12:34:00 PM 39.8722 -75.2409 150° Southeast  Level Estimated
Mon 12:34:57 PM 40.4833 -75.5000 189° South 247 284 5,700  Level Philadelphia TRACON
Mon 12:35:57 PM 40.4167 -75.5000 180° South 238 274 5,000 -333 Descending Philadelphia TRACON
Mon 12:37:03 PM 40.3500 -75.4667 159° South 219 252 5,000 48 Level Philadelphia TRACON
Mon 12:38:03 PM 40.3000 -75.4500 166° South 221 254 5,100  Climbing Philadelphia TRACON
Mon 12:39:03 PM 40.2333 -75.4500 180° South 223 257 5,000 -50 Descending Philadelphia TRACON
Mon 12:40:03 PM 40.1667 -75.4333 169° South 223 257 5,000  Level Philadelphia TRACON
Mon 12:41:09 PM 40.1000 -75.4167 169° South 221 254 5,000 -350 Level Philadelphia TRACON
Mon 12:42:03 PM 40.0500 -75.4167 180° South 230 265 4,300 -474 Descending Philadelphia TRACON
Mon 12:43:03 PM 39.9833 -75.4000 169° South 222 255 4,100 -150 Descending Philadelphia TRACON
Mon 12:44:03 PM 39.9333 -75.3833 166° South 204 235 4,000 -48 Descending Philadelphia TRACON
Mon 12:45:09 PM 39.8833 -75.3500 153° Southeast 208 239 4,000  Level Philadelphia TRACON
Mon 12:46:03 PM 39.8333 -75.3333 166° South 205 236 4,000  Level Philadelphia TRACON
Mon 12:47:03 PM 39.7667 -75.3000 159° South 204 235 4,000 -446 Level Philadelphia TRACON
Mon 12:48:04 PM 39.7167 -75.2667 153° Southeast 206 237 3,100 -694 Descending Philadelphia TRACON
Mon 12:49:04 PM 39.7167 -75.2000 90° East 204 235 2,600 -550 Descending Philadelphia TRACON
Mon 12:50:04 PM 39.7500 -75.1667 38° Northeast 189 217 2,000 -500 Descending Philadelphia TRACON
Mon 12:51:04 PM 39.8000 -75.1833 346° North 164 189 1,600 -600 Descending Philadelphia TRACON
Mon 12:52:04 PM 39.8333 -75.2167 322° Northwest 138 159 800 -750 Descending Philadelphia TRACON
Mon 12:53:04 PM 39.8667 -75.2333 339° North 118 136 100 -700 Descending Philadelphia TRACON

Login

Don't have an account? Register now (free) for customized features, flight alerts, and more!